Time;durP1;ratioP1;P1;durP2;ratioP2;P2;SDS_P1;SDS_P2;PMS_P1;PMS_P2;Temp;Humidity;BMP_temperature;BMP_pressure;BME280_temperature;BME280_humidity;BME280_pressure;Samples;Min_cycle;Max_cycle;Signal;HPM_P1;HPM_P2
2022/07/16 00:03:03;;;;;;;;;1.25;1.25;;;;;25.87;32.59;101585.78;5034603;28;45393;-38
2022/07/16 00:05:28;;;;;;;;;4.00;3.00;;;;;25.87;32.56;101582.22;5031491;28;45392;-43
2022/07/16 00:07:54;;;;;;;;;3.25;2.25;;;;;25.87;32.62;101577.75;5032262;28;45272;-38
2022/07/16 00:10:20;;;;;;;;;2.00;2.00;;;;;25.88;32.66;101581.25;5027957;28;45684;-38
2022/07/16 00:12:46;;;;;;;;;3.50;2.00;;;;;25.88;32.58;101587.47;5029410;28;45387;-38
2022/07/16 00:15:11;;;;;;;;;4.25;2.50;;;;;25.88;32.58;101583.94;5027636;28;45471;-38
2022/07/16 00:17:36;;;;;;;;;4.50;2.50;;;;;25.90;32.50;101582.00;5032844;28;57733;-38
2022/07/16 00:20:04;;;;;;;;;4.00;2.75;;;;;25.90;32.53;101584.69;5026269;28;45475;-37
2022/07/16 00:22:29;;;;;;;;;3.00;2.50;;;;;25.90;32.79;101587.34;5035032;28;45534;-39
2022/07/16 00:24:54;;;;;;;;;3.00;3.00;;;;;25.90;32.41;101584.69;5033338;28;68298;-37
2022/07/16 00:27:20;;;;;;;;;3.50;2.25;;;;;25.90;32.75;101585.53;5036511;28;60505;-37
2022/07/16 00:29:46;;;;;;;;;4.00;2.75;;;;;25.88;32.50;101575.91;5035267;28;48184;-37
2022/07/16 00:32:11;;;;;;;;;3.25;3.00;;;;;25.90;32.85;101585.53;5021448;28;45946;-37
2022/07/16 00:34:37;;;;;;;;;3.50;2.00;;;;;25.91;32.51;101581.88;5024730;28;45331;-39
2022/07/16 00:37:02;;;;;;;;;2.00;2.00;;;;;25.92;32.74;101588.97;5031720;28;65355;-38
2022/07/16 00:39:28;;;;;;;;;1.75;1.50;;;;;25.92;32.76;101582.72;5025649;28;56855;-38
2022/07/16 00:41:53;;;;;;;;;1.25;1.25;;;;;25.92;32.72;101588.97;5031128;28;45506;-38
2022/07/16 00:44:19;;;;;;;;;2.25;1.25;;;;;25.94;32.54;101588.84;5028465;28;45296;-38
2022/07/16 00:46:46;;;;;;;;;3.25;2.25;;;;;25.94;32.79;101588.84;5037345;28;45701;-38
2022/07/16 00:49:11;;;;;;;;;1.75;1.75;;;;;25.94;32.83;101591.53;5028649;28;46762;-37
2022/07/16 00:51:42;;;;;;;;;2.50;2.50;;;;;25.94;32.78;101592.41;5033423;28;45407;-37
2022/07/16 00:54:07;;;;;;;;;4.50;2.50;;;;;25.94;32.73;101596.88;5029858;28;45385;-36
2022/07/16 00:56:33;;;;;;;;;3.75;3.00;;;;;25.94;32.75;101592.41;5029640;28;52894;-38
2022/07/16 00:58:59;;;;;;;;;2.00;2.00;;;;;25.94;32.47;101586.16;5020629;28;71559;-38
2022/07/16 01:01:24;;;;;;;;;3.50;3.00;;;;;25.94;32.73;101592.41;5031965;28;52659;-38
2022/07/16 01:03:49;;;;;;;;;2.00;2.00;;;;;25.94;32.81;101589.72;5030561;28;57326;-37
2022/07/16 01:06:15;;;;;;;;;1.25;1.25;;;;;25.94;32.71;101581.69;5043045;28;69690;-37
2022/07/16 01:08:43;;;;;;;;;0.25;0.25;;;;;25.94;33.27;101581.69;5019943;28;45984;-38
2022/07/16 01:11:11;;;;;;;;;4.00;2.75;;;;;25.94;32.71;101580.81;5030776;28;45444;-38
2022/07/16 01:13:39;;;;;;;;;1.50;1.50;;;;;25.94;32.60;101589.72;5025943;28;45621;-38
2022/07/16 01:16:06;;;;;;;;;3.25;2.50;;;;;25.94;32.94;101587.03;5030683;28;45565;-38
2022/07/16 01:18:31;;;;;;;;;2.50;2.50;;;;;25.94;32.97;101581.69;5027934;28;45320;-37
2022/07/16 01:20:57;;;;;;;;;1.75;1.75;;;;;25.94;33.05;101584.34;5033169;28;45356;-37
2022/07/16 01:23:23;;;;;;;;;2.25;2.25;;;;;25.94;32.71;101597.78;5033703;28;45438;-38
2022/07/16 01:25:49;;;;;;;;;3.25;2.00;;;;;25.94;32.89;101591.53;5030331;28;45388;-38
2022/07/16 01:28:16;;;;;;;;;3.00;3.00;;;;;25.94;32.87;101587.03;5027276;28;46146;-38
2022/07/16 01:30:42;;;;;;;;;2.00;2.00;;;;;25.93;32.89;101590.69;5031520;28;45468;-38
2022/07/16 01:33:32;;;;;;;;;2.00;2.00;;;;;25.94;32.81;101591.53;5031048;28;45241;-37
2022/07/16 01:36:00;;;;;;;;;3.00;2.00;;;;;25.93;33.10;101593.38;5032372;28;45925;-38
2022/07/16 01:38:26;;;;;;;;;5.50;3.50;;;;;25.93;33.02;101598.72;5049168;28;47328;-37
2022/07/16 01:40:52;;;;;;;;;2.75;2.50;;;;;25.92;32.94;101593.44;5028394;28;45753;-37
2022/07/16 01:43:20;;;;;;;;;3.50;2.00;;;;;25.93;32.81;101592.50;5028694;28;45922;-37
2022/07/16 01:45:46;;;;;;;;;2.25;2.00;;;;;25.93;33.07;101587.13;5027091;28;45415;-38
2022/07/16 01:48:13;;;;;;;;;4.25;3.00;;;;;25.90;33.09;101590.03;5031839;28;46111;-38
2022/07/16 01:50:40;;;;;;;;;2.50;2.50;;;;;25.93;33.19;101598.72;5029286;28;45471;-38
2022/07/16 01:53:06;;;;;;;;;3.00;2.00;;;;;25.92;32.97;101598.81;5034849;28;45550;-38
2022/07/16 01:55:33;;;;;;;;;2.50;2.00;;;;;25.91;32.99;101592.59;5026471;28;45827;-38
2022/07/16 01:57:59;;;;;;;;;2.00;2.00;;;;;25.91;33.07;101595.28;5029606;28;46365;-38
2022/07/16 02:00:24;;;;;;;;;2.00;2.00;;;;;25.91;33.19;101597.13;5026526;28;45316;-38
2022/07/16 02:02:50;;;;;;;;;2.00;2.00;;;;;25.91;33.20;101591.75;5033845;28;45477;-38
2022/07/16 02:05:15;;;;;;;;;2.75;2.25;;;;;25.90;33.01;101587.34;5033014;28;47940;-38
2022/07/16 02:07:40;;;;;;;;;2.25;2.25;;;;;25.90;33.14;101588.19;5034014;28;75532;-38
2022/07/16 02:10:06;;;;;;;;;3.50;3.00;;;;;25.90;33.30;101592.72;5031803;28;64739;-38
2022/07/16 02:12:31;;;;;;;;;5.00;5.00;;;;;25.90;33.13;101592.72;5036082;28;46404;-35
2022/07/16 02:14:57;;;;;;;;;4.75;2.50;;;;;25.90;33.00;101592.72;5024774;28;70494;-36
2022/07/16 02:17:23;;;;;;;;;3.50;3.50;;;;;25.89;33.17;101591.03;5032057;28;46023;-36
2022/07/16 02:19:48;;;;;;;;;6.00;4.25;;;;;25.88;33.27;101587.47;5032106;28;45582;-36
2022/07/16 02:22:15;;;;;;;;;7.50;4.50;;;;;25.88;32.99;101581.25;5032780;28;45318;-36
2022/07/16 02:24:40;;;;;;;;;2.75;2.25;;;;;25.87;33.25;101591.16;5027095;28;45666;-36
2022/07/16 02:27:05;;;;;;;;;5.00;3.25;;;;;25.87;33.29;101587.59;5032123;28;45273;-37
2022/07/16 02:29:31;;;;;;;;;5.00;4.50;;;;;25.86;33.15;101586.75;5022559;28;69975;-36
2022/07/16 02:31:56;;;;;;;;;4.00;3.00;;;;;25.85;33.00;101590.41;5033667;28;61965;-38
2022/07/16 02:34:21;;;;;;;;;5.50;3.75;;;;;25.86;33.10;101594.78;5027258;28;64803;-38
2022/07/16 02:36:47;;;;;;;;;4.00;4.00;;;;;25.85;33.16;101593.09;5033945;28;69455;-38
2022/07/16 02:39:12;;;;;;;;;4.00;3.00;;;;;25.84;33.32;101591.38;5029053;28;72460;-36
2022/07/16 02:41:38;;;;;;;;;5.25;4.00;;;;;25.85;33.09;101594.91;5034107;28;45367;-36
2022/07/16 02:44:04;;;;;;;;;2.25;2.25;;;;;25.84;33.18;101594.06;5025933;28;45274;-38
2022/07/16 02:46:29;;;;;;;;;6.00;5.75;;;;;25.84;33.19;101590.53;5049421;28;45522;-36
2022/07/16 02:48:55;;;;;;;;;9.50;7.50;;;;;25.84;33.18;101590.53;5037041;28;51433;-36
2022/07/16 02:51:20;;;;;;;;;5.50;5.50;;;;;25.82;32.97;101589.81;5035843;28;45373;-36
2022/07/16 02:53:46;;;;;;;;;7.50;4.25;;;;;25.83;33.21;101596.84;5033391;28;45513;-36
2022/07/16 02:56:11;;;;;;;;;7.25;6.00;;;;;25.83;33.26;101599.53;5053607;28;47289;-36
2022/07/16 02:58:36;;;;;;;;;10.75;7.25;;;;;25.83;33.02;101594.19;5032905;28;45197;-36
2022/07/16 03:01:02;;;;;;;;;8.25;6.25;;;;;25.81;33.18;101588.09;5036375;28;61476;-36
2022/07/16 03:03:27;;;;;;;;;6.25;6.25;;;;;25.82;33.23;101596.00;5039191;28;45549;-36
2022/07/16 03:05:53;;;;;;;;;3.25;2.00;;;;;25.80;33.61;101591.72;5031892;28;61211;-36
2022/07/16 03:08:18;;;;;;;;;4.50;4.50;;;;;25.81;33.40;101594.28;5030371;28;66611;-37
2022/07/16 03:10:44;;;;;;;;;8.25;5.25;;;;;25.82;33.02;101592.50;5028741;28;57154;-36
2022/07/16 03:13:09;;;;;;;;;8.75;5.25;;;;;25.81;32.94;101585.41;5039198;28;45346;-36
2022/07/16 03:15:35;;;;;;;;;5.00;4.25;;;;;25.80;33.22;101587.25;5032400;28;74092;-36
2022/07/16 03:18:00;;;;;;;;;5.25;4.00;;;;;25.79;33.05;101582.84;5028432;28;45478;-37
2022/07/16 03:20:25;;;;;;;;;6.00;4.75;;;;;25.77;33.35;101585.63;5016938;28;62686;-37
2022/07/16 03:22:51;;;;;;;;;7.25;5.75;;;;;25.79;33.22;101592.72;5034600;28;64439;-37
2022/07/16 03:25:17;;;;;;;;;8.50;5.50;;;;;25.78;33.27;101594.53;5029715;28;75893;-38
2022/07/16 03:27:42;;;;;;;;;6.00;5.00;;;;;25.77;33.11;101596.38;5037396;28;45568;-36
2022/07/16 03:30:08;;;;;;;;;6.25;5.00;;;;;25.77;33.32;101593.69;5033012;28;46313;-36
2022/07/16 03:32:34;;;;;;;;;9.50;4.75;;;;;25.76;33.43;101593.78;5032065;28;45317;-37
2022/07/16 03:34:59;;;;;;;;;6.50;5.00;;;;;25.77;33.51;101590.16;5033750;28;66430;-36
2022/07/16 03:37:24;;;;;;;;;5.00;4.50;;;;;25.75;33.01;101582.22;5031680;28;45305;-36
2022/07/16 03:39:50;;;;;;;;;6.00;6.00;;;;;25.75;33.23;101594.78;5028644;28;46101;-37
2022/07/16 03:42:15;;;;;;;;;8.25;5.00;;;;;25.75;33.54;101595.63;5025784;28;73876;-36
2022/07/16 03:44:40;;;;;;;;;4.75;4.25;;;;;25.75;33.37;101600.16;5033975;28;45224;-39
2022/07/16 03:47:06;;;;;;;;;4.75;4.75;;;;;25.74;33.40;101593.91;5029097;28;45438;-36
2022/07/16 03:49:31;;;;;;;;;5.00;4.00;;;;;25.75;33.05;101597.47;5032721;28;61128;-36
2022/07/16 03:51:56;;;;;;;;;4.50;3.00;;;;;25.74;33.44;101601.09;5036294;28;60734;-41
2022/07/16 03:54:22;;;;;;;;;7.50;5.25;;;;;25.74;33.25;101601.09;5024592;28;57699;-37
2022/07/16 03:56:47;;;;;;;;;3.25;3.25;;;;;25.73;33.56;101605.63;5034507;28;51954;-37
2022/07/16 03:59:13;;;;;;;;;3.00;3.00;;;;;25.72;33.16;101598.53;5034482;28;51912;-37
2022/07/16 04:01:38;;;;;;;;;3.50;3.50;;;;;25.72;33.33;101597.69;5050432;28;45524;-37
2022/07/16 04:04:04;;;;;;;;;5.50;5.00;;;;;25.72;33.27;101601.22;5035943;28;73532;-37
2022/07/16 04:06:29;;;;;;;;;6.25;5.00;;;;;25.72;33.27;101603.91;5034472;28;45471;-37
2022/07/16 04:08:54;;;;;;;;;4.75;3.00;;;;;25.72;33.44;101600.38;5035001;28;62875;-37
2022/07/16 04:11:20;;;;;;;;;5.00;3.50;;;;;25.71;33.46;101602.22;5031818;28;45437;-37
2022/07/16 04:13:45;;;;;;;;;4.00;3.00;;;;;25.71;33.18;101618.31;5036610;28;46366;-38
2022/07/16 04:16:11;;;;;;;;;4.25;3.00;;;;;25.71;33.17;101618.31;5033082;28;45444;-38
2022/07/16 04:18:37;;;;;;;;;5.00;3.00;;;;;25.70;33.36;101608.53;5024886;28;45792;-38
2022/07/16 04:21:04;;;;;;;;;9.25;6.00;;;;;25.71;33.22;101622.78;5031280;28;45455;-38
2022/07/16 04:23:29;;;;;;;;;5.00;3.50;;;;;25.69;33.49;101620.25;5027067;28;47100;-38
2022/07/16 04:25:55;;;;;;;;;6.25;3.50;;;;;25.69;33.22;101616.69;5034388;28;45528;-38
2022/07/16 04:28:20;;;;;;;;;4.00;4.00;;;;;25.70;33.68;101621.94;5030907;28;45823;-38
2022/07/16 04:30:46;;;;;;;;;5.50;3.25;;;;;25.70;33.50;101623.78;5031049;28;45503;-38
2022/07/16 04:33:11;;;;;;;;;5.75;3.25;;;;;25.69;33.44;101625.63;5033255;28;47259;-38
2022/07/16 04:35:37;;;;;;;;;3.75;3.75;;;;;25.69;33.50;101632.78;5030796;28;45497;-38
2022/07/16 04:38:02;;;;;;;;;3.25;2.25;;;;;25.68;33.71;101629.25;5032812;28;45485;-38
2022/07/16 04:40:28;;;;;;;;;4.00;4.00;;;;;25.68;33.54;101628.41;5029505;28;45312;-38
2022/07/16 04:42:53;;;;;;;;;5.75;3.25;;;;;25.68;33.66;101631.09;5029020;28;71601;-38
2022/07/16 04:45:18;;;;;;;;;3.25;3.25;;;;;25.67;33.84;101632.06;5031353;28;62136;-38
2022/07/16 04:47:44;;;;;;;;;4.00;4.00;;;;;25.68;33.36;101628.41;5026899;28;62217;-38
2022/07/16 04:50:10;;;;;;;;;4.25;4.25;;;;;25.68;33.39;101631.09;5029966;28;45570;-38
2022/07/16 04:52:35;;;;;;;;;5.75;3.00;;;;;25.68;33.45;101631.09;5032380;28;45739;-37
2022/07/16 04:55:01;;;;;;;;;2.00;2.00;;;;;25.66;33.81;101628.53;5031790;28;63286;-38
2022/07/16 04:57:26;;;;;;;;;3.75;3.25;;;;;25.62;33.56;101621.69;5032109;28;56067;-37
2022/07/16 04:59:52;;;;;;;;;3.50;3.00;;;;;25.66;33.75;101631.19;5029448;28;68863;-37
2022/07/16 05:05:02;;;;;;;;;5.50;4.00;;;;;25.66;33.73;101639.25;5026839;28;45444;-38
2022/07/16 05:07:28;;;;;;;;;3.50;3.50;;;;;25.64;33.76;101633.16;5034525;28;45534;-38
2022/07/16 05:09:53;;;;;;;;;3.25;3.25;;;;;25.66;33.62;101635.72;5023588;28;45403;-38
2022/07/16 05:12:18;;;;;;;;;4.00;3.00;;;;;25.65;33.65;101637.53;5030655;28;54587;-38
2022/07/16 05:14:44;;;;;;;;;3.75;3.00;;;;;25.65;33.75;101631.31;5024577;28;70436;-38
2022/07/16 05:17:09;;;;;;;;;7.00;4.00;;;;;25.65;33.59;101637.53;5033209;28;68080;-38
2022/07/16 05:19:34;;;;;;;;;4.00;4.00;;;;;25.65;33.73;101632.16;5026028;28;66317;-38
2022/07/16 05:22:00;;;;;;;;;4.00;4.00;;;;;25.65;33.62;101625.94;5032064;28;71095;-39
2022/07/16 05:24:25;;;;;;;;;3.25;3.25;;;;;25.65;34.06;101625.94;5029065;28;45260;-39
2022/07/16 05:26:50;;;;;;;;;3.00;3.00;;;;;25.65;33.61;101625.94;5030470;28;56429;-36
2022/07/16 05:29:16;;;;;;;;;4.00;3.00;;;;;25.64;33.69;101622.44;5033321;28;45403;-37
2022/07/16 05:31:41;;;;;;;;;5.00;4.00;;;;;25.63;34.00;101620.72;5033597;28;71310;-36
2022/07/16 05:34:06;;;;;;;;;2.00;2.00;;;;;25.64;33.98;101618.88;5032215;28;65676;-37
2022/07/16 05:36:32;;;;;;;;;4.25;3.25;;;;;25.65;33.78;101620.59;5033877;28;63875;-36
2022/07/16 05:38:57;;;;;;;;;3.75;3.50;;;;;25.64;33.76;101621.56;5032058;28;65855;-37
2022/07/16 05:41:22;;;;;;;;;3.00;3.00;;;;;25.64;33.95;101626.91;5032939;28;54916;-36
2022/07/16 05:43:48;;;;;;;;;5.00;4.25;;;;;25.63;33.82;101631.44;5033644;28;59398;-36
2022/07/16 05:46:13;;;;;;;;;4.75;4.00;;;;;25.63;33.79;101634.09;5028511;28;60855;-37
2022/07/16 05:48:38;;;;;;;;;4.25;4.00;;;;;25.63;33.79;101636.78;5032093;28;67684;-37
2022/07/16 05:51:04;;;;;;;;;3.00;3.00;;;;;25.63;33.68;101633.28;5031733;28;75289;-37
2022/07/16 05:53:29;;;;;;;;;2.75;2.75;;;;;25.63;33.71;101639.47;5031606;28;45390;-38
2022/07/16 05:55:54;;;;;;;;;2.75;2.50;;;;;25.62;33.74;101644.94;5033664;28;45328;-37
2022/07/16 05:58:20;;;;;;;;;4.00;4.00;;;;;25.61;33.61;101651.31;5017293;28;54597;-38
2022/07/16 06:00:45;;;;;;;;;6.00;3.25;;;;;25.58;33.63;101655.91;5033799;28;53975;-38
2022/07/16 06:03:10;;;;;;;;;4.50;3.75;;;;;25.56;33.64;101646.28;5027362;28;45425;-37
2022/07/16 06:05:36;;;;;;;;;5.75;3.25;;;;;25.56;33.73;101646.28;5030335;28;67090;-37
2022/07/16 06:08:02;;;;;;;;;5.25;5.00;;;;;25.55;33.77;101652.59;5030076;28;75569;-37
2022/07/16 06:10:27;;;;;;;;;6.00;5.00;;;;;25.51;33.61;101660.00;5029631;28;45339;-37
2022/07/16 06:12:52;;;;;;;;;5.25;4.00;;;;;25.46;33.18;101659.53;5022999;28;64221;-37
2022/07/16 06:15:18;;;;;;;;;3.75;3.25;;;;;25.47;33.60;101666.59;5030578;28;66037;-37
2022/07/16 06:17:43;;;;;;;;;4.00;4.00;;;;;25.45;33.33;101671.22;5034379;28;45314;-41
2022/07/16 06:20:10;;;;;;;;;2.25;2.25;;;;;25.45;33.56;101670.38;5025560;28;45511;-38
2022/07/16 06:22:35;;;;;;;;;3.75;2.50;;;;;25.43;33.72;101681.19;5032026;28;46009;-37
2022/07/16 06:25:02;;;;;;;;;4.50;4.00;;;;;25.41;34.07;101680.47;5028134;28;46096;-37
2022/07/16 06:27:27;;;;;;;;;3.00;3.00;;;;;25.40;33.35;101676.06;5028433;28;45627;-37
2022/07/16 06:29:52;;;;;;;;;3.50;3.50;;;;;25.39;33.61;101680.56;5030141;28;46147;-37
2022/07/16 06:32:18;;;;;;;;;4.25;3.75;;;;;25.38;33.44;101684.22;5032132;28;67554;-36
2022/07/16 06:34:43;;;;;;;;;3.75;3.75;;;;;25.37;33.59;101684.31;5026319;28;45513;-36
2022/07/16 06:37:08;;;;;;;;;3.00;2.00;;;;;25.35;33.59;101684.44;5036012;28;61152;-36
2022/07/16 06:39:34;;;;;;;;;3.00;3.00;;;;;25.35;33.72;101699.66;5028247;28;46050;-37
2022/07/16 06:41:59;;;;;;;;;3.25;2.50;;;;;25.33;33.62;101691.72;5032963;28;45355;-37
2022/07/16 06:44:26;;;;;;;;;3.00;3.00;;;;;25.32;33.81;101702.56;5032115;28;45474;-37
2022/07/16 06:46:52;;;;;;;;;3.25;1.75;;;;;25.32;34.08;101706.13;5040091;28;45375;-37
2022/07/16 06:49:17;;;;;;;;;3.25;2.25;;;;;25.33;34.21;101702.44;5032951;28;45495;-37
2022/07/16 06:51:42;;;;;;;;;2.50;2.50;;;;;25.35;33.97;101703.19;5037663;28;45330;-37
2022/07/16 06:54:08;;;;;;;;;3.50;1.50;;;;;25.38;34.26;101711.00;5035674;28;45412;-37
2022/07/16 06:56:33;;;;;;;;;3.00;2.75;;;;;25.41;34.23;101719.78;5038638;28;45329;-37
2022/07/16 06:58:58;;;;;;;;;3.00;3.00;;;;;25.41;34.24;101717.97;5036819;28;65490;-37
2022/07/16 07:01:24;;;;;;;;;3.50;2.75;;;;;25.42;34.27;101717.00;5032144;28;68826;-37
2022/07/16 07:03:50;;;;;;;;;4.00;3.00;;;;;25.44;34.52;101716.88;5032564;28;59927;-37
2022/07/16 07:06:15;;;;;;;;;3.25;1.75;;;;;25.45;34.40;101722.13;5037941;28;45457;-37
2022/07/16 07:08:41;;;;;;;;;3.75;3.75;;;;;25.47;34.30;101716.66;5035120;28;72360;-37
2022/07/16 07:11:07;;;;;;;;;4.00;2.50;;;;;25.48;34.42;101719.22;5033665;28;45390;-37
2022/07/16 07:13:32;;;;;;;;;1.50;1.25;;;;;25.49;34.45;101718.25;5037651;28;45451;-38
2022/07/16 07:15:58;;;;;;;;;4.25;4.25;;;;;25.51;34.21;101721.66;5035353;28;45308;-38
2022/07/16 07:18:24;;;;;;;;;2.25;2.25;;;;;25.51;34.32;101718.97;5036907;28;45545;-37
2022/07/16 07:20:49;;;;;;;;;2.00;2.00;;;;;25.54;34.31;101717.91;5033676;28;45323;-37
2022/07/16 07:23:15;;;;;;;;;3.00;3.00;;;;;25.54;34.66;101721.44;5021719;28;45361;-37
2022/07/16 07:25:41;;;;;;;;;2.00;2.00;;;;;25.55;34.54;101717.81;5031988;28;45539;-37
2022/07/16 07:28:06;;;;;;;;;4.00;3.00;;;;;25.55;34.60;101720.47;5035419;28;71092;-37
2022/07/16 07:30:31;;;;;;;;;4.00;2.50;;;;;25.57;34.66;101723.91;5032898;28;45430;-37
2022/07/16 07:32:59;;;;;;;;;3.75;2.75;;;;;25.59;34.55;101723.78;5035575;28;57405;-38
2022/07/16 07:35:24;;;;;;;;;2.25;2.25;;;;;25.60;34.46;101727.31;5032154;28;45270;-37
2022/07/16 07:37:49;;;;;;;;;4.75;2.50;;;;;25.60;34.64;101721.94;5038601;28;71505;-37
2022/07/16 07:40:15;;;;;;;;;1.25;1.25;;;;;25.59;34.57;101726.47;5036707;28;45488;-37
2022/07/16 07:42:40;;;;;;;;;2.75;2.00;;;;;25.62;34.49;101728.03;5036571;28;45442;-37
2022/07/16 07:45:07;;;;;;;;;2.25;2.25;;;;;25.62;34.54;101731.59;5026779;28;70285;-37
2022/07/16 07:47:32;;;;;;;;;2.25;2.25;;;;;25.63;34.62;101727.09;5031461;28;45507;-37
2022/07/16 07:49:58;;;;;;;;;3.00;3.00;;;;;25.62;34.55;101723.56;5028740;28;70547;-37
2022/07/16 07:52:23;;;;;;;;;2.00;2.00;;;;;25.65;34.76;101725.16;5033234;28;45419;-37
2022/07/16 07:54:49;;;;;;;;;1.25;1.25;;;;;25.65;34.69;101727.81;5030167;28;45342;-37
2022/07/16 07:57:14;;;;;;;;;4.00;2.00;;;;;25.65;34.82;101717.94;5028662;28;45382;-37
2022/07/16 07:59:39;;;;;;;;;2.75;2.50;;;;;25.66;34.77;101724.19;5034875;28;68543;-37
2022/07/16 08:02:05;;;;;;;;;4.25;3.00;;;;;25.67;34.40;101726.72;5030014;28;56431;-37
2022/07/16 08:04:33;;;;;;;;;3.00;3.00;;;;;25.68;35.09;101722.25;5029811;28;45499;-37
2022/07/16 08:06:59;;;;;;;;;5.25;3.50;;;;;25.68;34.96;101720.41;5038260;28;46319;-37
2022/07/16 08:09:24;;;;;;;;;2.25;2.25;;;;;25.69;34.79;101723.94;5033890;28;45349;-37
2022/07/16 08:11:49;;;;;;;;;2.00;2.00;;;;;25.70;34.93;101725.66;5035004;28;65371;-37
2022/07/16 08:14:14;;;;;;;;;3.00;3.00;;;;;25.70;34.88;101726.50;5035043;28;72117;-37
2022/07/16 08:16:40;;;;;;;;;2.75;1.75;;;;;25.71;35.05;101728.22;5037539;28;45201;-37
2022/07/16 08:19:06;;;;;;;;;4.00;2.25;;;;;25.71;34.94;101724.66;5029648;28;66410;-37
2022/07/16 08:21:31;;;;;;;;;2.50;2.50;;;;;25.71;35.12;101733.59;5038713;28;60631;-37
2022/07/16 08:26:40;;;;;;;;;2.25;2.25;;;;;25.72;35.04;101721.88;5038761;28;45718;-37
2022/07/16 08:29:06;;;;;;;;;2.00;2.00;;;;;25.74;34.77;101724.44;5037435;28;67175;-37
2022/07/16 08:31:31;;;;;;;;;1.50;1.50;;;;;25.75;34.98;101724.34;5036628;28;71513;-38
2022/07/16 08:33:56;;;;;;;;;2.75;2.75;;;;;25.76;34.88;101719.81;5037315;28;73207;-37
2022/07/16 08:36:22;;;;;;;;;2.00;2.00;;;;;25.78;35.11;101720.56;5035175;28;74494;-37
2022/07/16 08:38:47;;;;;;;;;3.75;2.00;;;;;25.78;34.83;101720.56;5038399;28;45318;-37
2022/07/16 08:41:14;;;;;;;;;2.25;2.00;;;;;25.80;35.08;101721.31;5038511;28;45431;-37
2022/07/16 08:43:40;;;;;;;;;2.00;2.00;;;;;25.81;34.70;101719.47;5032527;28;45423;-37
2022/07/16 08:46:05;;;;;;;;;2.25;1.25;;;;;25.83;34.94;101728.25;5033082;28;47255;-37
2022/07/16 08:48:32;;;;;;;;;2.75;2.00;;;;;25.84;34.73;101727.28;5037890;28;45550;-37
2022/07/16 08:50:58;;;;;;;;;1.50;1.50;;;;;25.84;34.98;101733.50;5033325;28;58463;-37
2022/07/16 08:53:24;;;;;;;;;3.00;2.00;;;;;25.85;34.83;101727.19;5037187;28;45324;-37
2022/07/16 08:55:54;;;;;;;;;4.50;2.00;;;;;25.86;34.86;101730.72;5035395;28;46067;-37
2022/07/16 08:58:19;;;;;;;;;3.00;2.00;;;;;25.87;34.87;101733.28;5032626;28;45868;-37
2022/07/16 09:00:45;;;;;;;;;3.50;3.25;;;;;25.88;34.88;101726.09;5032011;28;45877;-37
2022/07/16 09:03:14;;;;;;;;;3.00;2.00;;;;;25.89;34.65;101735.84;5031122;28;54447;-37
2022/07/16 09:05:41;;;;;;;;;3.00;2.00;;;;;25.90;34.43;101734.88;5027179;28;46275;-38
2022/07/16 09:08:06;;;;;;;;;2.25;2.25;;;;;25.90;34.63;101732.19;5033512;28;45803;-37
2022/07/16 09:10:36;;;;;;;;;3.75;3.00;;;;;25.90;34.74;101730.34;5034274;28;46753;-37
2022/07/16 09:13:02;;;;;;;;;1.25;1.25;;;;;25.92;34.94;101732.91;5036504;28;45430;-37
2022/07/16 09:15:29;;;;;;;;;2.50;1.50;;;;;25.93;34.53;101738.19;5032683;28;46103;-37
2022/07/16 09:18:07;;;;;;;;;2.00;2.00;;;;;25.94;34.60;101745.28;5026984;28;45336;-37
2022/07/16 09:20:33;;;;;;;;;5.00;2.75;;;;;25.94;34.71;101737.25;5032759;28;45376;-37
2022/07/16 09:22:58;;;;;;;;;4.75;3.00;;;;;25.96;34.74;101731.75;5024873;28;45272;-37
2022/07/16 09:25:23;;;;;;;;;3.00;2.00;;;;;25.95;34.75;101727.34;5035398;28;71615;-37
2022/07/16 09:27:57;;;;;;;;;2.00;1.75;;;;;25.97;34.66;101730.78;5031393;28;70053;-37
2022/07/16 09:30:23;;;;;;;;;1.50;1.50;;;;;25.93;34.38;101727.47;5028339;28;45380;-37
2022/07/16 09:32:49;;;;;;;;;2.00;2.00;;;;;25.96;34.53;101739.81;5027726;28;45311;-37
2022/07/16 09:35:16;;;;;;;;;3.25;1.25;;;;;25.99;34.91;101744.06;5035356;28;62106;-37
2022/07/16 09:37:56;;;;;;;;;3.25;2.00;;;;;25.98;34.76;101742.38;5044718;28;45766;-38
2022/07/16 09:40:38;;;;;;;;;2.00;2.00;;;;;26.00;34.47;101740.44;5029942;28;45321;-38
2022/07/16 09:43:17;;;;;;;;;3.00;3.00;;;;;25.99;34.61;101741.38;5028780;28;45306;-37
2022/07/16 09:45:44;;;;;;;;;3.00;3.00;;;;;26.00;34.75;101738.59;5029847;28;45328;-37
2022/07/16 09:48:22;;;;;;;;;3.00;3.00;;;;;26.01;34.59;101739.44;5027106;28;45330;-38
2022/07/16 09:50:48;;;;;;;;;4.00;4.00;;;;;26.02;34.97;101733.97;5024646;28;45439;-37
2022/07/16 09:53:15;;;;;;;;;4.00;1.75;;;;;26.02;34.56;101728.59;5013763;28;45394;-38
2022/07/16 09:56:17;;;;;;;;;2.00;2.00;;;;;26.03;34.73;101738.38;5044337;28;46453;-38
2022/07/16 09:58:46;;;;;;;;;2.00;2.00;;;;;26.05;34.67;101733.72;5009807;28;45765;-37
2022/07/16 10:01:11;;;;;;;;;2.50;1.75;;;;;26.06;35.02;101738.09;5032015;28;45343;-37
2022/07/16 10:03:37;;;;;;;;;3.00;2.00;;;;;26.09;34.98;101737.88;5029525;28;45359;-37
2022/07/16 10:06:02;;;;;;;;;5.50;3.25;;;;;26.12;34.60;101736.81;5030684;28;48253;-37
2022/07/16 10:08:28;;;;;;;;;1.00;1.00;;;;;26.16;34.75;101742.78;5028990;28;45437;-38
2022/07/16 10:10:53;;;;;;;;;1.50;1.50;;;;;26.17;34.85;101731.06;5033256;28;45577;-37
2022/07/16 10:13:24;;;;;;;;;1.00;1.00;;;;;26.21;34.80;101735.25;5027395;28;72504;-37
2022/07/16 10:15:49;;;;;;;;;2.00;2.00;;;;;26.24;34.47;101741.22;5029297;28;46540;-37
2022/07/16 10:18:36;;;;;;;;;2.50;2.50;;;;;26.27;34.37;101745.47;5026348;28;67500;-37
2022/07/16 10:21:13;;;;;;;;;2.50;2.00;;;;;26.30;34.58;101746.09;5033329;28;45467;-37
2022/07/16 10:23:41;;;;;;;;;2.00;2.00;;;;;26.32;34.37;101738.78;5032935;28;45281;-37
2022/07/16 10:26:14;;;;;;;;;2.00;2.00;;;;;26.38;34.34;101744.63;5033613;28;46247;-37
2022/07/16 10:28:45;;;;;;;;;0.75;0.75;;;;;26.48;34.73;101745.63;5024161;28;45420;-38
2022/07/16 10:31:30;;;;;;;;;2.50;2.00;;;;;26.78;34.56;101739.69;5031876;28;45499;-37
2022/07/16 10:34:14;;;;;;;;;2.00;1.50;;;;;27.43;33.58;101739.88;5028792;28;45458;-37
2022/07/16 10:36:54;;;;;;;;;2.25;2.00;;;;;28.34;32.25;101735.75;5030561;28;45355;-37
2022/07/16 10:39:22;;;;;;;;;1.25;1.25;;;;;28.89;32.04;101732.75;5031069;28;45420;-37
2022/07/16 10:41:54;;;;;;;;;4.00;3.50;;;;;29.16;31.25;101723.19;5030855;28;45469;-38
2022/07/16 10:44:22;;;;;;;;;4.25;2.00;;;;;29.11;30.85;101730.81;5031074;28;45415;-37
2022/07/16 10:46:50;;;;;;;;;4.00;3.00;;;;;28.92;30.73;101731.66;5033119;28;45872;-37
2022/07/16 10:49:15;;;;;;;;;2.00;2.00;;;;;28.74;31.07;101731.44;5034093;28;45852;-37
2022/07/16 10:51:53;;;;;;;;;2.00;2.00;;;;;28.53;31.42;101735.00;5033275;28;57423;-37
2022/07/16 10:54:19;;;;;;;;;3.25;2.00;;;;;28.36;31.66;101730.22;5028941;28;45916;-37
2022/07/16 10:56:45;;;;;;;;;3.00;2.00;;;;;28.20;31.73;101728.03;5036156;28;46391;-37
2022/07/16 10:59:12;;;;;;;;;2.25;2.25;;;;;28.08;32.44;101731.75;5024932;28;45828;-37
2022/07/16 11:01:40;;;;;;;;;2.00;1.25;;;;;27.99;32.57;101733.41;5031264;28;45297;-38
2022/07/16 11:04:07;;;;;;;;;1.25;1.25;;;;;27.96;32.03;101729.16;5032437;28;45427;-37
2022/07/16 11:06:32;;;;;;;;;1.25;1.25;;;;;27.95;32.63;101727.44;5035029;28;47035;-38
2022/07/16 11:09:02;;;;;;;;;0.75;0.75;;;;;27.96;32.18;101725.59;5038144;28;45759;-37
2022/07/16 11:11:37;;;;;;;;;3.00;3.00;;;;;27.92;32.12;101730.38;5034685;28;45487;-37
2022/07/16 11:14:03;;;;;;;;;3.75;2.25;;;;;27.88;32.77;101728.06;5027375;28;45451;-37
2022/07/16 11:16:29;;;;;;;;;4.50;2.75;;;;;27.83;32.57;101725.75;5036867;28;46135;-37
2022/07/16 11:18:55;;;;;;;;;3.00;1.75;;;;;27.80;32.65;101723.31;5027306;28;45408;-38
2022/07/16 11:21:20;;;;;;;;;2.25;2.25;;;;;27.77;32.53;101729.81;5028102;28;45427;-37
2022/07/16 11:23:50;;;;;;;;;1.50;1.50;;;;;27.74;33.01;101713.94;5025680;28;72173;-37
2022/07/16 11:26:16;;;;;;;;;3.00;2.25;;;;;27.73;32.89;101712.25;5036479;28;45451;-37
2022/07/16 11:28:58;;;;;;;;;3.50;2.75;;;;;27.70;33.13;101720.56;5023601;28;45356;-37